RJEO(METAR)
06/24 14:00
RJEO 240500Z 30006KT 9999 FEW040 FEWXXX 19/15 Q1011 RMK A2987=
戻る
トップページへ戻る
IMOC Co,.Ltd.